AV - LB | Pilotos de la V.A




 METAR AND TAF INFORMATION
METAR FOR RJCW
ADDS - METARS form results

(0143 UTC 19 May 2021)
Data provider http://aviationweather.gov/metar/data/
 
METAR text: RJCW 190100Z 20015KT 9999 FEW040 SCT/// 20/10 Q1009
Conditions at: RJCW (WAKKANAI AIRPORT, JP) observed 0100 UTC 19 May 2021
Temperature: 20.0°C (68°F)
Dewpoint: 10.0°C (50°F) [RH = 53%]
Pressure (altimeter): 29.79 inches Hg (1009.0 mb)
Winds: from the SSW (200 degrees) at 17 MPH (15 knots; 7.7 m/s)
Visibility: 6 or more miles (10+ km)
Ceiling: at least 12,000 feet AGL
Clouds: few clouds at 4000 feet AGL
Weather: no significant weather observed at this time

 AIRPORT MAP

 RUNWAY INFORMATION
Runway 08 Runway length 6560 ft Runway width 150 ft
Runway elevation 23 ft Runway displaced threshold 0 ft Runway heading 69
Runway 26 Runway length 6560 ft Runway width 150 ft
Runway elevation 30 ft Runway displaced threshold 0 ft Runway heading 249

 AIRPORT FREQUENCIES
Type A/G Name RDO Frequency 118.3 MHZ
Type ACC Name SAPPORO CO Frequency 127.5 MHZ

 AIRPORT NEAR NAVIGATION AIDS
Type VOR-DME Name Wakkanai Frequency 115300 KHZ